MET'MAP v2.0
soon released !

Expected late october,
this new version will be
more efficient, smarter,
and hosted on a brand new
server x3 powerfull...
...and still free !


Not compatible ?
Try the mobile version !

LOG IN : | Subscribe | Disclaimer | Who is Orbifly ? |
ICAO code :

TAF - LSZR Alten Rhein - 21 Nov 2019 09:12 UTC
Data Sources :     NOAA   


- Airport Elevation : 1306 ft
- IATA code : ACH
- No reported NOTAMs.


LSZR - Alten Rhein

Latest METAR recorded : 2015/08/11 07:50 LSZR 110750Z 28006KT 9999 FEW017 BKN040 22/19 Q1017 NOSIG RMK D
TAF TAF LSZR
Valid from the 21 at 06:00 until the 21 at 15:00 UTC


210525Z 2106/2115 VRB03KT 9999 OVC016
PROB30 2106/2110 OVC014
PROB40 2112/2115 SCT020

Source NOAA
ATIS : +41 71 858 51 66


MET'MAP, your aeronautical weather chart ! - Copyright ORBIFLY December 2007

Programming & Development : Alexandra Zaïnal
Co-Developer : Marc-Olivier Méhu
Technical & hardware support : Manuel Goepfert
Concept & Financing : Baudouin d'Aumeries